Wapella, Canada
Current Conditions -  °F | °C
As of 12:00 AM on Thursday 23 Oct 2014 (Local Time) from CYQV Reporting Station
Overcast Overcast  
Wind Chill: 50°   Ceiling: 1300
Heat Index: 50°   Visibility: 9mi
Dew Point: 45°   Wind: 13mph
Humidity: 82%   Direction: 260°W
Pressure: 29.71"   Gusts: 18mph
Location:  50.25°N, 101.97°W
Report Text: CYQV 230600Z AUTO 26011G16KT 9SM OVC013 10/07 A2971 RMK SLP071
Loading
Personal Weather Stations






























Interactive Weather Map
Tropical Storm Tracking
New forecast layout! Learn more

10-Day Weather Forecast

Advertisements
Track Severe Weather on mobile